Time;durP1;ratioP1;P1;durP2;ratioP2;P2;SDS_P1;SDS_P2;PMS_P1;PMS_P2;Temp;Humidity;BMP_temperature;BMP_pressure;BME280_temperature;BME280_humidity;BME280_pressure;Samples;Min_cycle;Max_cycle;Signal;HPM_P1;HPM_P2
2024/04/01 00:01:43;;;;;;;;;;;;;;;15.49;57.24;97140.83;105806;1253;75305;-40
2024/04/01 00:04:10;;;;;;;;;;;;;;;15.41;57.40;97134.02;105819;1257;66015;-41
2024/04/01 00:06:37;;;;;;;;;;;;;;;15.34;57.08;97130.95;105793;1254;72635;-41
2024/04/01 00:09:04;;;;;;;;;;;;;;;15.30;56.74;97128.16;105742;1257;62034;-40
2024/04/01 00:11:31;;;;;;;;;;;;;;;15.29;56.39;97122.27;105761;1257;62119;-40
2024/04/01 00:13:58;;;;;;;;;;;;;;;15.27;56.13;97120.11;105776;1253;75089;-41
2024/04/01 00:16:25;;;;;;;;;;;;;;;15.23;56.12;97117.36;105788;1256;64026;-41
2024/04/01 00:18:52;;;;;;;;;;;;;;;15.14;56.11;97117.80;105763;1254;72183;-41
2024/04/01 00:21:19;;;;;;;;;;;;;;;15.06;56.85;97119.58;105813;1256;62040;-40
2024/04/01 00:23:49;;;;;;;;;;;;;;;14.94;57.58;97119.44;105914;1257;62065;-40
2024/04/01 00:26:16;;;;;;;;;;;;;;;14.84;57.60;97112.52;105911;1257;75185;-42
2024/04/01 00:28:43;;;;;;;;;;;;;;;14.78;57.71;97101.86;105785;1256;65242;-41
2024/04/01 00:31:10;;;;;;;;;;;;;;;14.75;58.16;97096.35;105719;1257;71284;-42
2024/04/01 00:33:37;;;;;;;;;;;;;;;14.66;58.78;97092.60;105912;1257;62030;-41
2024/04/01 00:36:05;;;;;;;;;;;;;;;14.55;58.65;97091.58;105953;1256;62062;-39
2024/04/01 00:38:32;;;;;;;;;;;;;;;14.49;58.70;97089.13;105774;1251;74448;-40
2024/04/01 00:40:59;;;;;;;;;;;;;;;14.44;59.12;97089.91;105750;1257;65909;-40
2024/04/01 00:43:26;;;;;;;;;;;;;;;14.35;59.31;97092.08;105770;1256;72459;-39
2024/04/01 00:45:53;;;;;;;;;;;;;;;14.31;59.39;97095.16;105990;1256;62004;-40
2024/04/01 00:48:20;;;;;;;;;;;;;;;14.29;59.62;97096.76;105997;1257;62829;-41
2024/04/01 00:50:48;;;;;;;;;;;;;;;14.27;59.72;97100.08;105959;1256;76253;-39
2024/04/01 00:53:15;;;;;;;;;;;;;;;14.27;59.61;97104.09;105849;1256;66259;-41
2024/04/01 00:55:42;;;;;;;;;;;;;;;14.27;59.93;97099.09;105850;1256;72316;-43
2024/04/01 00:58:09;;;;;;;;;;;;;;;14.27;59.95;97090.39;105793;1257;62021;-44
2024/04/01 01:00:36;;;;;;;;;;;;;;;14.25;60.16;97089.71;105788;1256;62405;-41
2024/04/01 01:03:04;;;;;;;;;;;;;;;14.24;60.54;97089.30;105853;1257;75283;-39
2024/04/01 01:05:31;;;;;;;;;;;;;;;14.19;60.82;97089.30;105941;1255;66039;-41
2024/04/01 01:07:58;;;;;;;;;;;;;;;14.13;61.15;97088.86;105955;1257;72356;-40
2024/04/01 01:10:25;;;;;;;;;;;;;;;14.07;61.60;97083.48;105695;1254;62044;-40
2024/04/01 01:12:52;;;;;;;;;;;;;;;14.00;61.89;97082.80;105829;1257;62584;-42
2024/04/01 01:15:19;;;;;;;;;;;;;;;13.92;62.58;97086.49;105921;1257;75405;-41
2024/04/01 01:17:46;;;;;;;;;;;;;;;13.82;62.74;97088.15;105714;1260;65838;-41
2024/04/01 01:20:14;;;;;;;;;;;;;;;13.72;62.75;97094.70;105668;1257;72393;-41
2024/04/01 01:22:41;;;;;;;;;;;;;;;13.65;62.95;97094.89;105737;1257;61976;-40
2024/04/01 01:25:09;;;;;;;;;;;;;;;13.60;63.35;97097.24;106398;1252;62121;-39
2024/04/01 01:27:36;;;;;;;;;;;;;;;13.54;63.64;97096.48;105677;1255;75168;-41
2024/04/01 01:30:04;;;;;;;;;;;;;;;13.48;63.67;97096.92;105696;1257;65734;-43
2024/04/01 01:32:31;;;;;;;;;;;;;;;13.45;64.01;97099.47;105735;1257;72548;-42
2024/04/01 01:34:58;;;;;;;;;;;;;;;13.43;64.26;97095.26;105866;1254;62053;-43
2024/04/01 01:37:25;;;;;;;;;;;;;;;13.42;64.84;97100.45;105847;1257;62033;-41
2024/04/01 01:39:52;;;;;;;;;;;;;;;13.40;65.06;97099.52;105860;1251;75281;-41
2024/04/01 01:42:19;;;;;;;;;;;;;;;13.36;65.30;97095.92;105856;1257;65747;-41
2024/04/01 01:44:46;;;;;;;;;;;;;;;13.34;65.68;97101.70;105965;1255;72357;-38
2024/04/01 01:47:13;;;;;;;;;;;;;;;13.28;65.92;97099.56;105867;1259;62504;-39
2024/04/01 01:49:40;;;;;;;;;;;;;;;13.26;66.18;97096.79;105880;1251;62025;-41
2024/04/01 01:52:08;;;;;;;;;;;;;;;13.25;66.26;97094.73;105854;1256;74790;-40
2024/04/01 01:54:35;;;;;;;;;;;;;;;13.24;66.36;97097.23;105854;1257;65865;-39
2024/04/01 01:57:02;;;;;;;;;;;;;;;13.23;66.52;97095.27;105804;1251;72755;-40
2024/04/01 01:59:29;;;;;;;;;;;;;;;13.22;66.40;97096.41;105815;1253;62028;-43
2024/04/01 02:01:57;;;;;;;;;;;;;;;13.21;66.51;97094.06;105813;1254;62053;-41
2024/04/01 02:04:24;;;;;;;;;;;;;;;13.17;66.60;97093.86;105822;1251;75378;-43
2024/04/01 02:06:51;;;;;;;;;;;;;;;13.12;66.63;97096.77;105690;1257;65983;-42
2024/04/01 02:09:18;;;;;;;;;;;;;;;13.06;66.88;97096.48;105863;1255;72513;-41
2024/04/01 02:11:45;;;;;;;;;;;;;;;13.02;67.01;97095.70;105963;1262;62067;-41
2024/04/01 02:14:12;;;;;;;;;;;;;;;12.99;67.04;97104.42;105835;1256;62224;-40
2024/04/01 02:16:39;;;;;;;;;;;;;;;12.97;66.86;97108.36;105724;1256;75214;-41
2024/04/01 02:19:07;;;;;;;;;;;;;;;12.97;66.74;97106.17;105796;1257;65693;-39
2024/04/01 02:21:34;;;;;;;;;;;;;;;12.97;66.65;97101.71;105746;1256;72510;-40
2024/04/01 02:24:01;;;;;;;;;;;;;;;12.96;66.57;97094.26;105654;1257;62051;-43
2024/04/01 02:26:28;;;;;;;;;;;;;;;12.97;66.75;97093.38;105680;1252;62178;-41
2024/04/01 02:28:55;;;;;;;;;;;;;;;12.94;67.01;97093.61;105742;1255;75137;-41
2024/04/01 02:31:22;;;;;;;;;;;;;;;12.86;66.50;97089.23;105864;1257;65054;-44
2024/04/01 02:33:50;;;;;;;;;;;;;;;12.83;66.45;97086.67;105668;1256;73050;-45
2024/04/01 02:36:17;;;;;;;;;;;;;;;12.80;66.98;97088.23;105756;1256;62692;-43
2024/04/01 02:38:47;;;;;;;;;;;;;;;12.75;65.62;97089.98;105966;1253;62120;-41
2024/04/01 02:41:15;;;;;;;;;;;;;;;12.78;65.17;97085.95;105960;1257;75225;-40
2024/04/01 02:43:45;;;;;;;;;;;;;;;12.83;64.11;97087.29;105726;1257;66276;-41
2024/04/01 02:46:12;;;;;;;;;;;;;;;12.92;62.65;97081.05;105815;1251;73640;-40
2024/04/01 02:48:39;;;;;;;;;;;;;;;13.08;62.36;97069.91;105828;1251;62441;-39
2024/04/01 02:51:06;;;;;;;;;;;;;;;13.16;62.83;97075.98;105882;1257;62738;-39
2024/04/01 02:53:33;;;;;;;;;;;;;;;13.15;61.79;97073.18;105770;1253;75625;-39
2024/04/01 02:56:00;;;;;;;;;;;;;;;13.19;61.59;97068.50;105833;1256;66826;-38
2024/04/01 02:58:28;;;;;;;;;;;;;;;13.19;61.74;97067.18;105809;1251;72972;-38
2024/04/01 03:00:56;;;;;;;;;;;;;;;13.16;61.26;97068.84;105794;1264;61998;-40
2024/04/01 03:03:23;;;;;;;;;;;;;;;13.19;60.69;97071.23;105804;1253;62539;-41
2024/04/01 03:05:50;;;;;;;;;;;;;;;13.23;60.07;97077.61;105727;1253;76674;-41
2024/04/01 03:08:17;;;;;;;;;;;;;;;13.26;60.67;97076.58;105801;1254;66439;-41
2024/04/01 03:10:45;;;;;;;;;;;;;;;13.25;61.07;97067.15;105744;1257;72286;-42
2024/04/01 03:13:12;;;;;;;;;;;;;;;13.20;60.76;97066.53;105821;1256;62050;-40
2024/04/01 03:15:39;;;;;;;;;;;;;;;13.18;60.36;97066.77;105848;1257;62062;-40
2024/04/01 03:18:06;;;;;;;;;;;;;;;13.20;60.05;97070.36;105756;1257;75364;-39
2024/04/01 03:20:33;;;;;;;;;;;;;;;13.22;60.00;97070.66;105847;1257;66150;-39
2024/04/01 03:23:00;;;;;;;;;;;;;;;13.23;59.75;97072.40;105773;1255;72492;-41
2024/04/01 03:25:27;;;;;;;;;;;;;;;13.25;59.19;97070.00;105928;1257;62075;-39
2024/04/01 03:27:54;;;;;;;;;;;;;;;13.29;58.87;97075.45;105715;1254;62059;-39
2024/04/01 03:30:21;;;;;;;;;;;;;;;13.32;59.15;97077.31;105692;1254;75388;-39
2024/04/01 03:32:48;;;;;;;;;;;;;;;13.31;59.16;97074.50;105767;1257;66076;-39
2024/04/01 03:35:16;;;;;;;;;;;;;;;13.29;58.81;97079.84;106137;1257;72390;-42
2024/04/01 03:37:43;;;;;;;;;;;;;;;13.30;58.64;97081.95;105745;1257;62047;-42
2024/04/01 03:40:10;;;;;;;;;;;;;;;13.32;58.39;97083.26;106295;1251;62036;-43
2024/04/01 03:42:37;;;;;;;;;;;;;;;13.35;58.36;97090.88;105965;1257;75141;-42
2024/04/01 03:45:07;;;;;;;;;;;;;;;13.36;58.24;97092.79;105952;1256;65991;-39
2024/04/01 03:47:35;;;;;;;;;;;;;;;13.39;58.19;97096.40;105908;1251;72530;-39
2024/04/01 03:50:02;;;;;;;;;;;;;;;13.38;58.30;97094.63;105840;1255;61937;-40
2024/04/01 03:52:30;;;;;;;;;;;;;;;13.35;58.39;97096.05;106025;1257;62171;-40
2024/04/01 03:54:58;;;;;;;;;;;;;;;13.32;58.31;97094.61;105656;1258;75162;-40
2024/04/01 03:57:25;;;;;;;;;;;;;;;13.30;58.18;97095.25;105764;1257;65890;-40
2024/04/01 03:59:52;;;;;;;;;;;;;;;13.30;57.97;97095.40;106365;1256;72641;-39
2024/04/01 04:02:19;;;;;;;;;;;;;;;13.33;57.92;97091.36;105807;1256;62575;-40
2024/04/01 04:04:46;;;;;;;;;;;;;;;13.34;57.97;97087.39;105734;1255;62165;-40
2024/04/01 04:07:13;;;;;;;;;;;;;;;13.33;57.82;97096.49;105597;1256;75201;-42
2024/04/01 04:09:40;;;;;;;;;;;;;;;13.32;57.73;97093.17;105677;1256;65653;-39
2024/04/01 04:12:07;;;;;;;;;;;;;;;13.31;57.56;97094.44;105751;1254;72351;-42
2024/04/01 04:14:34;;;;;;;;;;;;;;;13.32;57.53;97093.06;105916;1254;62047;-41
2024/04/01 04:17:02;;;;;;;;;;;;;;;13.33;57.83;97096.02;105818;1257;62178;-40
2024/04/01 04:19:29;;;;;;;;;;;;;;;13.30;58.23;97097.61;105937;1256;76087;-40
2024/04/01 04:21:56;;;;;;;;;;;;;;;13.24;58.29;97102.02;105821;1256;66140;-40
2024/04/01 04:24:25;;;;;;;;;;;;;;;13.21;57.97;97105.19;105591;1257;72332;-41
2024/04/01 04:26:52;;;;;;;;;;;;;;;13.22;57.98;97107.85;105724;1257;62040;-41
2024/04/01 04:29:19;;;;;;;;;;;;;;;13.21;58.14;97111.13;105795;1257;62034;-40
2024/04/01 04:31:51;;;;;;;;;;;;;;;13.21;57.73;97111.90;105855;1254;75403;-40
2024/04/01 04:34:19;;;;;;;;;;;;;;;13.24;57.72;97114.23;105684;1254;66326;-39
2024/04/01 04:36:46;;;;;;;;;;;;;;;13.26;58.13;97117.67;105720;1251;72381;-41
2024/04/01 04:39:19;;;;;;;;;;;;;;;13.25;58.22;97122.61;105925;1257;62081;-44
2024/04/01 04:41:46;;;;;;;;;;;;;;;13.22;58.10;97126.21;105787;1254;62486;-39
2024/04/01 04:44:14;;;;;;;;;;;;;;;13.23;57.87;97127.85;105621;1256;75364;-42
2024/04/01 04:46:41;;;;;;;;;;;;;;;13.26;57.86;97128.75;105793;1256;66185;-40
2024/04/01 04:49:08;;;;;;;;;;;;;;;13.28;58.02;97127.44;105915;1251;72534;-40
2024/04/01 04:51:36;;;;;;;;;;;;;;;13.28;58.02;97128.07;105918;1257;62063;-41
2024/04/01 04:54:04;;;;;;;;;;;;;;;13.30;57.94;97131.02;105799;1255;62042;-39
2024/04/01 04:56:31;;;;;;;;;;;;;;;13.31;57.81;97127.16;105817;1251;76386;-38
2024/04/01 04:58:59;;;;;;;;;;;;;;;13.31;57.97;97128.70;105937;1264;65900;-39
2024/04/01 05:01:26;;;;;;;;;;;;;;;13.31;57.85;97132.09;105861;1254;72646;-41
2024/04/01 05:03:54;;;;;;;;;;;;;;;13.33;58.04;97136.98;105674;1256;62056;-40
2024/04/01 05:06:21;;;;;;;;;;;;;;;13.34;57.85;97133.65;105574;1254;62235;-39
2024/04/01 05:08:48;;;;;;;;;;;;;;;13.37;57.87;97130.86;105554;1253;75174;-40
2024/04/01 05:11:15;;;;;;;;;;;;;;;13.40;57.77;97132.66;105767;1258;66042;-40
2024/04/01 05:13:42;;;;;;;;;;;;;;;13.45;57.59;97137.44;105474;1254;72522;-39
2024/04/01 05:16:10;;;;;;;;;;;;;;;13.51;57.50;97138.95;105808;1258;62104;-43
2024/04/01 05:18:37;;;;;;;;;;;;;;;13.57;57.34;97142.20;105802;1255;62125;-39
2024/04/01 05:21:04;;;;;;;;;;;;;;;13.63;57.76;97148.19;105768;1257;75430;-42
2024/04/01 05:23:31;;;;;;;;;;;;;;;13.68;58.03;97144.29;105802;1257;64393;-40
2024/04/01 05:25:58;;;;;;;;;;;;;;;13.71;58.16;97146.86;105929;1254;72803;-40
2024/04/01 05:28:25;;;;;;;;;;;;;;;13.75;58.30;97147.59;105882;1256;62021;-40
2024/04/01 05:30:55;;;;;;;;;;;;;;;13.77;58.57;97150.30;105787;1252;62088;-39
2024/04/01 05:33:23;;;;;;;;;;;;;;;13.82;58.13;97148.06;105697;1252;75024;-40
2024/04/01 05:35:50;;;;;;;;;;;;;;;13.90;58.06;97150.48;105743;1257;65589;-40
2024/04/01 05:38:18;;;;;;;;;;;;;;;13.99;57.93;97150.98;105663;1255;73606;-40
2024/04/01 05:40:45;;;;;;;;;;;;;;;14.08;57.36;97147.61;105769;1257;62781;-40
2024/04/01 05:43:12;;;;;;;;;;;;;;;14.20;56.88;97149.73;105670;1252;62149;-38
2024/04/01 05:45:40;;;;;;;;;;;;;;;14.34;56.54;97146.27;105672;1256;76371;-42
2024/04/01 05:48:07;;;;;;;;;;;;;;;14.47;56.22;97149.17;105663;1254;66658;-41
2024/04/01 05:50:34;;;;;;;;;;;;;;;14.59;56.09;97153.51;105794;1254;72052;-42
2024/04/01 05:53:02;;;;;;;;;;;;;;;14.69;56.36;97153.22;105811;1257;61946;-41
2024/04/01 05:55:29;;;;;;;;;;;;;;;14.80;56.01;97152.20;105577;1258;62123;-41
2024/04/01 05:57:56;;;;;;;;;;;;;;;14.91;55.31;97155.09;105639;1253;76503;-37
2024/04/01 06:00:23;;;;;;;;;;;;;;;15.04;55.38;97157.41;105536;1257;65822;-37
2024/04/01 06:02:53;;;;;;;;;;;;;;;15.17;55.20;97158.80;105688;1254;72227;-41
2024/04/01 06:05:20;;;;;;;;;;;;;;;15.31;54.66;97160.02;105982;1257;62446;-38
2024/04/01 06:07:47;;;;;;;;;;;;;;;15.49;53.18;97160.41;105884;1254;62053;-39
2024/04/01 06:10:14;;;;;;;;;;;;;;;15.69;51.28;97158.70;106146;1257;76617;-40
2024/04/01 06:12:42;;;;;;;;;;;;;;;15.95;49.73;97159.88;105740;1251;67023;-41
2024/04/01 06:15:09;;;;;;;;;;;;;;;16.19;48.86;97164.61;109524;1251;73267;-39
2024/04/01 06:17:36;;;;;;;;;;;;;;;16.37;48.59;97164.02;109173;1251;60112;-40
2024/04/01 06:20:03;;;;;;;;;;;;;;;16.52;48.16;97164.32;106185;1251;62008;-35
2024/04/01 06:22:31;;;;;;;;;;;;;;;16.65;47.02;97166.98;105773;1254;77413;-40
2024/04/01 06:25:00;;;;;;;;;;;;;;;16.77;47.02;97162.34;105658;1257;66207;-40
2024/04/01 06:27:31;;;;;;;;;;;;;;;16.88;46.31;97162.85;105839;1255;73329;-39
2024/04/01 06:30:01;;;;;;;;;;;;;;;16.99;46.50;97163.56;105470;1254;62145;-39
2024/04/01 06:32:31;;;;;;;;;;;;;;;17.08;46.29;97170.20;106459;1256;62113;-39
2024/04/01 06:34:59;;;;;;;;;;;;;;;17.14;46.18;97168.46;106518;1257;76294;-39
2024/04/01 06:37:34;;;;;;;;;;;;;;;17.19;45.85;97174.14;105930;1254;67339;-40
2024/04/01 06:40:12;;;;;;;;;;;;;;;17.23;45.70;97171.84;105722;1260;72690;-36
2024/04/01 06:43:37;;;;;;;;;;;;;;;17.32;45.57;97173.06;105508;1252;62126;-40
2024/04/01 06:46:09;;;;;;;;;;;;;;;17.37;45.55;97175.94;105726;1257;62147;-38
2024/04/01 06:48:39;;;;;;;;;;;;;;;17.40;45.72;97173.80;109291;1254;76109;-38
2024/04/01 06:51:06;;;;;;;;;;;;;;;17.43;45.75;97172.15;105725;1255;66051;-41
2024/04/01 06:53:34;;;;;;;;;;;;;;;17.48;45.89;97173.33;105603;1260;72340;-38
2024/04/01 06:56:10;;;;;;;;;;;;;;;17.52;45.58;97169.89;105709;1257;62174;-42
2024/04/01 06:58:51;;;;;;;;;;;;;;;17.59;45.45;97168.02;105571;1259;62053;-40
2024/04/01 07:01:34;;;;;;;;;;;;;;;17.66;45.63;97172.27;105474;1260;76262;-39
2024/04/01 07:04:02;;;;;;;;;;;;;;;17.74;46.04;97170.05;105576;1260;66312;-40
2024/04/01 07:06:30;;;;;;;;;;;;;;;17.81;46.14;97169.64;105751;1251;73341;-42
2024/04/01 07:09:04;;;;;;;;;;;;;;;17.87;45.81;97173.55;105481;1260;62504;-40
2024/04/01 07:11:32;;;;;;;;;;;;;;;17.92;46.01;97166.38;105720;1257;62012;-37
2024/04/01 07:13:59;;;;;;;;;;;;;;;17.97;45.63;97169.65;105725;1257;76802;-41
2024/04/01 07:16:28;;;;;;;;;;;;;;;18.01;45.90;97165.92;105329;1254;67094;-37
2024/04/01 07:18:56;;;;;;;;;;;;;;;18.05;45.63;97164.70;105704;1254;72856;-41
2024/04/01 07:21:26;;;;;;;;;;;;;;;18.09;45.60;97165.92;105741;1254;61995;-41
2024/04/01 07:23:56;;;;;;;;;;;;;;;18.13;45.65;97165.39;105633;1257;62005;-41
2024/04/01 07:31:18;;;;;;;;;;;;;;;18.32;45.58;97166.14;105668;1254;67452;-42
2024/04/01 07:33:48;;;;;;;;;;;;;;;18.38;45.44;97168.11;105756;1252;72397;-38
2024/04/01 07:36:19;;;;;;;;;;;;;;;18.44;44.71;97160.33;105476;1259;62472;-37
2024/04/01 07:38:47;;;;;;;;;;;;;;;18.53;44.66;97160.89;105458;1254;61948;-36
2024/04/01 07:41:15;;;;;;;;;;;;;;;18.62;44.29;97159.35;105649;1259;76355;-38
2024/04/01 07:43:42;;;;;;;;;;;;;;;18.74;44.00;97162.03;105338;1254;66597;-36
2024/04/01 07:46:10;;;;;;;;;;;;;;;18.86;43.40;97153.14;105620;1254;73359;-40
2024/04/01 07:48:50;;;;;;;;;;;;;;;18.97;42.96;97154.63;105510;1259;62174;-38
2024/04/01 07:51:25;;;;;;;;;;;;;;;19.06;42.92;97154.02;105575;1254;61941;-41
2024/04/01 07:53:58;;;;;;;;;;;;;;;19.15;43.35;97146.08;105276;1261;75891;-41
2024/04/01 07:56:25;;;;;;;;;;;;;;;19.22;42.82;97147.88;105399;1260;66864;-38
2024/04/01 07:58:52;;;;;;;;;;;;;;;19.27;42.99;97147.48;105806;1260;73419;-42
2024/04/01 08:01:20;;;;;;;;;;;;;;;19.32;43.04;97145.08;105538;1257;62082;-37
2024/04/01 08:03:47;;;;;;;;;;;;;;;19.37;43.84;97148.66;105622;1254;62191;-39
2024/04/01 08:06:17;;;;;;;;;;;;;;;19.42;42.84;97144.54;105550;1253;75885;-40
2024/04/01 08:08:45;;;;;;;;;;;;;;;19.43;42.86;97138.59;105638;1257;65111;-37
2024/04/01 08:11:12;;;;;;;;;;;;;;;19.43;43.65;97140.61;105586;1254;73640;-43
2024/04/01 08:13:39;;;;;;;;;;;;;;;19.44;43.76;97141.77;105601;1257;62065;-42
2024/04/01 08:16:07;;;;;;;;;;;;;;;19.45;44.14;97137.68;105574;1257;62182;-40
2024/04/01 08:18:35;;;;;;;;;;;;;;;19.45;43.13;97140.16;105488;1260;76127;-43
2024/04/01 08:21:03;;;;;;;;;;;;;;;19.45;43.59;97136.14;105721;1256;67750;-38
2024/04/01 08:23:31;;;;;;;;;;;;;;;19.45;43.16;97139.00;105596;1257;73657;-41
2024/04/01 08:25:58;;;;;;;;;;;;;;;19.45;43.40;97134.98;105698;1257;62479;-50
2024/04/01 08:28:26;;;;;;;;;;;;;;;19.48;43.78;97133.37;105522;1255;61997;-45
2024/04/01 08:30:53;;;;;;;;;;;;;;;19.56;43.51;97131.08;105497;1253;76095;-42
2024/04/01 08:33:20;;;;;;;;;;;;;;;19.63;43.50;97124.34;105403;1254;66288;-42
2024/04/01 08:35:47;;;;;;;;;;;;;;;19.70;42.51;97129.93;105355;1254;74315;-36
2024/04/01 08:38:14;;;;;;;;;;;;;;;19.74;42.60;97125.24;105419;1253;61954;-37
2024/04/01 08:40:53;;;;;;;;;;;;;;;19.80;42.63;97121.44;105368;1254;62118;-43
2024/04/01 08:43:40;;;;;;;;;;;;;;;19.87;42.40;97122.31;105479;1256;76254;-39
2024/04/01 08:46:08;;;;;;;;;;;;;;;19.95;42.09;97122.77;105452;1257;66963;-42
2024/04/01 08:48:35;;;;;;;;;;;;;;;20.02;42.01;97126.05;106868;1253;72830;-43
2024/04/01 08:51:03;;;;;;;;;;;;;;;20.11;41.42;97125.13;105777;1257;62485;-41
2024/04/01 08:53:33;;;;;;;;;;;;;;;20.20;41.47;97129.11;105762;1253;62044;-37
2024/04/01 08:56:00;;;;;;;;;;;;;;;20.30;41.32;97131.87;105543;1256;76246;-37
2024/04/01 08:58:28;;;;;;;;;;;;;;;20.36;42.05;97130.31;105343;1258;68988;-41
2024/04/01 09:00:56;;;;;;;;;;;;;;;20.43;42.15;97122.67;105282;1254;73147;-40
2024/04/01 09:03:23;;;;;;;;;;;;;;;20.51;42.41;97124.61;105489;1256;62041;-48
2024/04/01 09:05:54;;;;;;;;;;;;;;;20.55;42.14;97114.08;105299;1253;62090;-43
2024/04/01 09:08:21;;;;;;;;;;;;;;;20.60;42.14;97119.63;105820;1253;76047;-41
2024/04/01 09:10:52;;;;;;;;;;;;;;;20.67;42.17;97117.38;105473;1254;66208;-41
2024/04/01 09:13:19;;;;;;;;;;;;;;;20.77;42.14;97115.03;105666;1256;73658;-37
2024/04/01 09:15:47;;;;;;;;;;;;;;;20.91;41.75;97108.30;105418;1253;62015;-40
2024/04/01 09:18:14;;;;;;;;;;;;;;;21.05;41.44;97101.42;105267;1254;62133;-38
2024/04/01 09:20:41;;;;;;;;;;;;;;;21.20;41.21;97109.20;105374;1256;76203;-47
2024/04/01 09:23:09;;;;;;;;;;;;;;;21.31;40.90;97108.35;105368;1257;64727;-42
2024/04/01 09:25:36;;;;;;;;;;;;;;;21.37;40.58;97106.83;105199;1254;74983;-43
2024/04/01 09:28:04;;;;;;;;;;;;;;;21.38;41.04;97106.20;107713;1253;62066;-41
2024/04/01 09:30:31;;;;;;;;;;;;;;;21.45;40.92;97111.85;105500;1251;62352;-40
2024/04/01 09:32:59;;;;;;;;;;;;;;;21.50;40.15;97114.30;106395;1250;76136;-40
2024/04/01 09:35:26;;;;;;;;;;;;;;;21.54;40.31;97119.14;105935;1254;67253;-40
2024/04/01 09:37:53;;;;;;;;;;;;;;;21.58;40.47;97120.41;105409;1257;74569;-41
2024/04/01 09:40:21;;;;;;;;;;;;;;;21.64;40.30;97115.59;105704;1257;62053;-40
2024/04/01 09:42:49;;;;;;;;;;;;;;;21.72;40.63;97109.41;105558;1253;61931;-41
2024/04/01 09:45:16;;;;;;;;;;;;;;;21.83;40.78;97104.78;105363;1254;76179;-41
2024/04/01 09:47:43;;;;;;;;;;;;;;;21.96;41.05;97099.86;105606;1259;66969;-40
2024/04/01 09:50:11;;;;;;;;;;;;;;;22.06;40.39;97099.58;105868;1254;74372;-42
2024/04/01 09:52:38;;;;;;;;;;;;;;;22.11;40.47;97094.21;105560;1254;61961;-41
2024/04/01 09:55:06;;;;;;;;;;;;;;;22.16;40.48;97092.82;105432;1256;62117;-40
2024/04/01 09:57:36;;;;;;;;;;;;;;;22.23;38.68;97096.57;106111;1256;75157;-37
2024/04/01 10:00:09;;;;;;;;;;;;;;;22.25;38.03;97091.80;105447;1257;66875;-40
2024/04/01 10:02:48;;;;;;;;;;;;;;;22.25;37.62;97093.23;105710;1256;73331;-42
2024/04/01 10:05:36;;;;;;;;;;;;;;;22.24;36.98;97092.91;105880;1255;62041;-38
2024/04/01 10:08:06;;;;;;;;;;;;;;;22.24;37.15;97091.51;105494;1254;62122;-38
2024/04/01 10:10:52;;;;;;;;;;;;;;;22.26;36.84;97100.23;105494;1254;78452;-41
2024/04/01 10:13:38;;;;;;;;;;;;;;;22.31;37.14;97093.63;105497;1254;66598;-43
2024/04/01 10:16:05;;;;;;;;;;;;;;;22.38;37.29;97094.02;105461;1257;72863;-42
2024/04/01 10:18:37;;;;;;;;;;;;;;;22.49;37.21;97084.91;105495;1251;62492;-41
2024/04/01 10:21:25;;;;;;;;;;;;;;;22.65;37.83;97082.91;108270;1253;60156;-43
2024/04/01 10:23:55;;;;;;;;;;;;;;;22.88;35.98;97087.73;105433;1255;75501;-42
2024/04/01 10:26:31;;;;;;;;;;;;;;;23.06;35.83;97093.25;106074;1256;67186;-41
2024/04/01 10:29:04;;;;;;;;;;;;;;;23.22;33.35;97092.67;105592;1256;73483;-40
2024/04/01 10:31:31;;;;;;;;;;;;;;;23.27;33.15;97087.52;105883;1253;62079;-42
2024/04/01 10:34:17;;;;;;;;;;;;;;;23.26;33.04;97076.44;105622;1253;62059;-41
2024/04/01 10:36:51;;;;;;;;;;;;;;;23.19;32.52;97087.92;105519;1256;76257;-41
2024/04/01 10:39:30;;;;;;;;;;;;;;;23.08;33.06;97092.94;105422;1254;66067;-41
2024/04/01 10:42:03;;;;;;;;;;;;;;;23.10;33.80;97082.79;105597;1254;73097;-40
2024/04/01 10:44:41;;;;;;;;;;;;;;;23.25;33.32;97094.46;105920;1256;62036;-39
2024/04/01 10:47:37;;;;;;;;;;;;;;;23.41;32.90;97085.48;105652;1256;62089;-40
2024/04/01 10:50:10;;;;;;;;;;;;;;;23.48;33.28;97089.27;105331;1256;75310;-40
2024/04/01 10:52:57;;;;;;;;;;;;;;;23.43;32.36;97085.31;105483;1257;68396;-43
2024/04/01 10:55:24;;;;;;;;;;;;;;;23.25;32.76;97083.46;105474;1254;73284;-42
2024/04/01 10:57:54;;;;;;;;;;;;;;;23.10;33.54;97082.31;105528;1257;62040;-41
2024/04/01 11:00:31;;;;;;;;;;;;;;;23.03;33.24;97081.70;105611;1254;62127;-40
2024/04/01 11:03:17;;;;;;;;;;;;;;;23.04;33.10;97078.28;105394;1256;76229;-37
2024/04/01 11:05:57;;;;;;;;;;;;;;;23.20;32.48;97075.90;105823;1251;67117;-38
2024/04/01 11:09:00;;;;;;;;;;;;;;;23.45;32.44;97068.67;105665;1254;74646;-44
2024/04/01 11:11:36;;;;;;;;;;;;;;;23.63;32.31;97058.06;104978;1260;62079;-38
2024/04/01 11:14:04;;;;;;;;;;;;;;;23.81;32.12;97057.98;105451;1254;62059;-41
2024/04/01 11:16:32;;;;;;;;;;;;;;;24.06;30.79;97054.34;105440;1256;76246;-40
2024/04/01 11:19:08;;;;;;;;;;;;;;;24.37;30.11;97053.43;105046;1254;170964;-39
2024/04/01 11:21:51;;;;;;;;;;;;;;;24.77;30.05;97052.41;105411;1254;73881;-46
2024/04/01 11:24:28;;;;;;;;;;;;;;;25.10;28.91;97050.54;105511;1257;62044;-41
2024/04/01 11:27:16;;;;;;;;;;;;;;;25.27;29.67;97046.29;105526;1257;61929;-39
2024/04/01 11:29:59;;;;;;;;;;;;;;;25.41;28.94;97046.82;105452;1256;75433;-39
2024/04/01 11:32:26;;;;;;;;;;;;;;;25.48;29.00;97040.59;105494;1256;68742;-41
2024/04/01 11:35:14;;;;;;;;;;;;;;;25.50;28.19;97040.95;106993;1255;73486;-39
2024/04/01 11:38:04;;;;;;;;;;;;;;;25.47;28.09;97034.86;105408;1253;63109;-40
2024/04/01 11:40:32;;;;;;;;;;;;;;;25.48;27.51;97037.30;105312;1254;62385;-39
2024/04/01 11:43:05;;;;;;;;;;;;;;;25.47;28.17;97030.25;105552;1258;75462;-38
2024/04/01 11:45:32;;;;;;;;;;;;;;;25.63;28.23;97022.68;105741;1253;66023;-38
2024/04/01 11:48:00;;;;;;;;;;;;;;;25.77;27.69;97018.52;105421;1256;73380;-39
2024/04/01 11:50:27;;;;;;;;;;;;;;;25.84;27.69;97012.14;105344;1257;62186;-41
2024/04/01 11:53:05;;;;;;;;;;;;;;;25.98;27.26;97012.00;105286;1253;62107;-42
2024/04/01 11:55:32;;;;;;;;;;;;;;;26.27;27.30;97006.59;105725;1254;75568;-42
2024/04/01 11:58:07;;;;;;;;;;;;;;;26.53;26.64;97000.98;107973;1253;66462;-40
2024/04/01 12:00:34;;;;;;;;;;;;;;;26.71;26.31;96989.77;105630;1254;73512;-40
2024/04/01 12:03:01;;;;;;;;;;;;;;;26.77;26.14;96990.79;105306;1257;62066;-40
2024/04/01 12:05:28;;;;;;;;;;;;;;;26.85;25.74;96985.39;105585;1254;62066;-42
2024/04/01 12:07:55;;;;;;;;;;;;;;;26.96;25.81;96976.92;105398;1257;76411;-43
2024/04/01 12:10:22;;;;;;;;;;;;;;;27.03;25.58;96974.04;105527;1256;66476;-41
2024/04/01 12:12:50;;;;;;;;;;;;;;;27.04;26.10;96974.97;105606;1257;73893;-39
2024/04/01 12:15:21;;;;;;;;;;;;;;;27.16;26.42;96973.95;105855;1255;62044;-39
2024/04/01 12:17:49;;;;;;;;;;;;;;;27.35;26.19;96979.06;105454;1254;62707;-37
2024/04/01 12:20:16;;;;;;;;;;;;;;;27.37;26.84;96973.46;105832;1256;75997;-40
2024/04/01 12:22:43;;;;;;;;;;;;;;;27.43;27.04;96979.78;105318;1258;68905;-41
2024/04/01 12:25:11;;;;;;;;;;;;;;;27.60;26.71;96975.59;105784;1254;74563;-40
2024/04/01 12:27:38;;;;;;;;;;;;;;;27.75;25.79;96958.02;105461;1256;62109;-39
2024/04/01 12:30:06;;;;;;;;;;;;;;;27.72;25.18;96955.27;105828;1253;62018;-40
2024/04/01 12:32:38;;;;;;;;;;;;;;;27.47;24.85;96954.48;105715;1253;77855;-39
2024/04/01 12:35:08;;;;;;;;;;;;;;;27.17;24.63;96961.75;105347;1254;67612;-40
2024/04/01 12:37:36;;;;;;;;;;;;;;;26.98;25.20;96966.45;105558;1257;72259;-39
2024/04/01 12:40:06;;;;;;;;;;;;;;;26.92;25.53;96963.20;105897;1254;62639;-39
2024/04/01 12:42:35;;;;;;;;;;;;;;;26.91;25.07;96960.16;105211;1256;62012;-38
2024/04/01 12:45:09;;;;;;;;;;;;;;;26.82;25.08;96956.09;105441;1253;75747;-38
2024/04/01 12:47:36;;;;;;;;;;;;;;;26.72;25.62;96956.39;105639;1256;66276;-41
2024/04/01 12:50:08;;;;;;;;;;;;;;;26.74;25.91;96959.20;105267;1253;73255;-40
2024/04/01 12:52:35;;;;;;;;;;;;;;;26.80;25.63;96952.27;105784;1256;62041;-38